createdAt,value
2023-04-29T00:02:17.477Z,23.31
2023-04-29T00:04:45.314Z,23.30
2023-04-29T00:07:15.938Z,23.29
2023-04-29T00:09:43.319Z,23.28
2023-04-29T00:12:11.201Z,23.30
2023-04-29T00:14:38.654Z,23.28
2023-04-29T00:17:06.157Z,23.26
2023-04-29T00:19:33.955Z,23.26
2023-04-29T00:22:01.373Z,23.26
2023-04-29T00:24:28.774Z,23.25
2023-04-29T00:26:56.840Z,23.25
2023-04-29T00:29:24.293Z,23.23
2023-04-29T00:31:51.886Z,23.23
2023-04-29T00:34:19.518Z,23.22
2023-04-29T00:36:46.989Z,23.21
2023-04-29T00:39:15.447Z,23.22
2023-04-29T00:41:44.226Z,23.20
2023-04-29T00:44:12.524Z,23.20
2023-04-29T00:46:40.221Z,23.19
2023-04-29T00:49:08.328Z,23.19
2023-04-29T00:51:36.930Z,23.19
2023-04-29T00:54:04.753Z,23.18
2023-04-29T00:56:34.406Z,23.17
2023-04-29T00:59:02.886Z,23.18
2023-04-29T01:01:30.623Z,23.17
2023-04-29T01:03:58.997Z,23.16
2023-04-29T01:06:51.650Z,23.15
2023-04-29T01:09:29.564Z,23.14
2023-04-29T01:12:18.894Z,23.12
2023-04-29T01:14:49.994Z,23.09
2023-04-29T01:17:18.771Z,23.10
2023-04-29T01:19:51.124Z,23.08
2023-04-29T01:22:21.930Z,23.08
2023-04-29T01:24:49.780Z,23.09
2023-04-29T01:27:30.721Z,23.08
2023-04-29T01:31:06.805Z,23.08
2023-04-29T01:33:42.420Z,23.09
2023-04-29T01:36:22.509Z,23.07
2023-04-29T01:39:16.632Z,23.06
2023-04-29T01:42:08.821Z,23.08
2023-04-29T01:44:36.660Z,23.04
2023-04-29T01:47:04.714Z,23.04
2023-04-29T01:49:35.755Z,23.04
2023-04-29T01:52:03.514Z,23.02
2023-04-29T01:54:32.126Z,23.03
2023-04-29T01:57:00.604Z,23.02
2023-04-29T01:59:30.209Z,23.02
2023-04-29T02:01:59.700Z,23.02
2023-04-29T02:04:28.689Z,23.01
2023-04-29T02:06:56.197Z,23.02
2023-04-29T02:09:24.040Z,23.02
2023-04-29T02:11:52.062Z,23.02
2023-04-29T02:14:19.543Z,23.02
2023-04-29T02:16:47.164Z,23.01
2023-04-29T02:19:15.250Z,23.00
2023-04-29T02:21:43.086Z,23.00
2023-04-29T02:24:10.834Z,23.00
2023-04-29T02:26:38.903Z,22.99
2023-04-29T02:29:06.319Z,22.99
2023-04-29T02:31:33.832Z,22.98
2023-04-29T02:34:01.712Z,22.97
2023-04-29T02:36:29.256Z,22.97
2023-04-29T02:38:57.167Z,22.97
2023-04-29T02:41:25.854Z,22.98
2023-04-29T02:43:53.371Z,22.97
2023-04-29T02:46:21.022Z,22.98
2023-04-29T02:48:48.880Z,22.97
2023-04-29T02:51:16.403Z,22.97
2023-04-29T02:53:44.201Z,22.97
2023-04-29T02:56:12.261Z,22.97
2023-04-29T02:58:39.691Z,22.96
2023-04-29T03:01:07.233Z,22.96
2023-04-29T03:03:35.023Z,22.94
2023-04-29T03:06:02.549Z,22.94
2023-04-29T03:08:30.032Z,22.93
2023-04-29T03:10:57.847Z,22.92
2023-04-29T03:13:25.586Z,22.92
2023-04-29T03:15:53.047Z,22.91
2023-04-29T03:18:21.001Z,22.92
2023-04-29T03:20:48.590Z,22.92
2023-04-29T03:23:16.011Z,22.91
2023-04-29T03:25:43.909Z,22.90
2023-04-29T03:28:11.325Z,22.90
2023-04-29T03:30:38.894Z,22.90
2023-04-29T03:33:07.516Z,22.90
2023-04-29T03:35:35.096Z,22.88
2023-04-29T03:38:06.242Z,22.88
2023-04-29T03:40:34.161Z,22.88
2023-04-29T03:43:01.663Z,22.88
2023-04-29T03:45:29.438Z,22.88
2023-04-29T03:47:57.388Z,22.88
2023-04-29T03:50:26.075Z,22.88
2023-04-29T03:52:53.791Z,22.87
2023-04-29T03:55:21.564Z,22.88
2023-04-29T03:57:48.965Z,22.86
2023-04-29T04:00:17.135Z,22.86
2023-04-29T04:02:45.482Z,22.86
2023-04-29T04:05:13.595Z,22.86
2023-04-29T04:07:41.941Z,22.84
2023-04-29T04:10:13.769Z,22.86
2023-04-29T04:12:43.923Z,22.85
2023-04-29T04:15:12.245Z,22.86
2023-04-29T04:17:39.818Z,22.86
2023-04-29T04:20:08.073Z,22.86
2023-04-29T04:22:36.411Z,22.85
2023-04-29T04:25:05.266Z,22.86
2023-04-29T04:27:32.970Z,22.86
2023-04-29T04:30:01.422Z,22.87
2023-04-29T04:32:29.270Z,22.85
2023-04-29T04:34:57.420Z,22.85
2023-04-29T04:37:25.129Z,22.85
2023-04-29T04:39:53.531Z,22.84
2023-04-29T04:42:22.687Z,22.83
2023-04-29T04:44:50.647Z,22.82
2023-04-29T04:47:19.214Z,22.83
2023-04-29T04:49:47.124Z,22.82
2023-04-29T04:52:14.927Z,22.82
2023-04-29T04:54:46.437Z,22.82
2023-04-29T04:57:14.258Z,22.82
2023-04-29T04:59:43.355Z,22.82
2023-04-29T05:02:13.538Z,22.81
2023-04-29T05:04:41.056Z,22.82
2023-04-29T05:07:09.031Z,22.81
2023-04-29T05:09:37.643Z,22.81
2023-04-29T05:12:05.156Z,22.80
2023-04-29T05:14:34.401Z,22.80
2023-04-29T05:17:02.907Z,22.81
2023-04-29T05:19:30.699Z,22.81
2023-04-29T05:21:58.461Z,22.80
2023-04-29T05:24:26.349Z,22.80
2023-04-29T05:26:54.201Z,22.80
2023-04-29T05:29:21.983Z,22.78
2023-04-29T05:31:50.420Z,22.78
2023-04-29T05:34:18.522Z,22.78
2023-04-29T05:36:46.704Z,22.77
2023-04-29T05:39:15.147Z,22.77
2023-04-29T05:41:43.375Z,22.77
2023-04-29T05:44:11.269Z,22.77
2023-04-29T05:46:38.825Z,22.77
2023-04-29T05:49:06.448Z,22.78
2023-04-29T05:51:34.118Z,22.77
2023-04-29T05:54:01.661Z,22.77
2023-04-29T05:56:29.480Z,22.79
2023-04-29T05:58:57.161Z,22.79
2023-04-29T06:01:24.626Z,22.78
2023-04-29T06:03:52.659Z,22.79
2023-04-29T06:06:22.712Z,22.80
2023-04-29T06:08:51.685Z,22.80
2023-04-29T06:11:19.647Z,22.81
2023-04-29T06:13:47.109Z,22.80
2023-04-29T06:16:15.088Z,22.80
2023-04-29T06:18:42.557Z,22.81
2023-04-29T06:21:12.085Z,22.81
2023-04-29T06:23:39.825Z,22.81
2023-04-29T06:26:07.516Z,22.82
2023-04-29T06:28:35.004Z,22.83
2023-04-29T06:31:02.992Z,22.82
2023-04-29T06:33:31.212Z,22.82
2023-04-29T06:35:58.694Z,22.82
2023-04-29T06:38:28.334Z,22.82
2023-04-29T06:41:00.557Z,22.84
2023-04-29T06:43:28.575Z,22.81
2023-04-29T06:45:56.181Z,22.82
2023-04-29T06:48:24.019Z,22.83
2023-04-29T06:50:52.722Z,22.82
2023-04-29T06:53:20.311Z,22.82
2023-04-29T06:55:47.981Z,22.82
2023-04-29T06:58:16.363Z,22.83
2023-04-29T07:00:48.260Z,22.83
2023-04-29T07:03:16.453Z,22.83
2023-04-29T07:05:45.564Z,22.84
2023-04-29T07:08:13.371Z,22.86
2023-04-29T07:10:41.697Z,22.87
2023-04-29T07:13:09.232Z,22.87
2023-04-29T07:15:36.770Z,22.87
2023-04-29T07:18:05.480Z,22.84
2023-04-29T07:20:33.176Z,22.83
2023-04-29T07:23:00.973Z,22.86
2023-04-29T07:25:29.892Z,22.88
2023-04-29T07:27:57.780Z,22.90
2023-04-29T07:30:25.743Z,22.92
2023-04-29T07:32:53.627Z,22.95
2023-04-29T07:35:21.635Z,22.95
2023-04-29T07:37:49.202Z,22.97
2023-04-29T07:40:16.986Z,22.97
2023-04-29T07:42:44.439Z,22.99
2023-04-29T07:45:13.929Z,22.99
2023-04-29T07:47:41.903Z,23.00
2023-04-29T07:50:09.687Z,23.02
2023-04-29T07:52:39.286Z,23.03
2023-04-29T07:55:07.109Z,23.13
2023-04-29T07:57:34.538Z,23.07
2023-04-29T08:00:02.372Z,23.07
2023-04-29T08:02:30.885Z,23.08
2023-04-29T08:04:59.156Z,23.09
2023-04-29T08:07:26.953Z,23.11
2023-04-29T08:09:54.512Z,23.13
2023-04-29T08:12:22.261Z,23.14
2023-04-29T08:14:49.692Z,23.16
2023-04-29T08:17:17.123Z,23.17
2023-04-29T08:19:44.847Z,23.21
2023-04-29T08:22:14.138Z,23.21
2023-04-29T08:24:42.870Z,23.23
2023-04-29T08:27:10.770Z,23.26
2023-04-29T08:29:38.330Z,23.25
2023-04-29T08:32:06.099Z,23.28
2023-04-29T08:34:36.142Z,23.29
2023-04-29T08:37:03.596Z,23.30
2023-04-29T08:39:31.276Z,23.30
2023-04-29T08:41:59.940Z,23.31
2023-04-29T08:44:27.952Z,23.29
2023-04-29T08:46:55.623Z,23.29
2023-04-29T08:49:23.322Z,23.29
2023-04-29T08:51:51.788Z,23.29
2023-04-29T08:54:19.223Z,23.29
2023-04-29T08:56:49.743Z,23.29
2023-04-29T08:59:17.510Z,23.27
2023-04-29T09:01:49.667Z,23.27
2023-04-29T09:04:36.031Z,23.26
2023-04-29T09:07:03.480Z,23.28
2023-04-29T09:09:31.240Z,23.23
2023-04-29T09:11:59.057Z,23.23
2023-04-29T09:14:26.624Z,23.23
2023-04-29T09:16:54.327Z,23.21
2023-04-29T09:19:32.183Z,23.20
2023-04-29T09:22:00.413Z,23.22
2023-04-29T09:24:28.527Z,23.17
2023-04-29T09:26:56.082Z,23.16
2023-04-29T09:29:24.102Z,23.16
2023-04-29T09:31:54.394Z,23.15
2023-04-29T09:34:52.967Z,23.14
2023-04-29T09:37:27.985Z,23.15
2023-04-29T09:39:55.566Z,23.16
2023-04-29T09:42:23.267Z,23.15
2023-04-29T09:44:52.328Z,23.15
2023-04-29T09:47:20.376Z,23.13
2023-04-29T09:49:50.067Z,23.15
2023-04-29T09:52:18.247Z,23.14
2023-04-29T09:54:45.776Z,23.14
2023-04-29T09:57:16.470Z,23.12
2023-04-29T09:59:44.039Z,23.14
2023-04-29T10:02:16.661Z,23.14
2023-04-29T10:04:48.686Z,23.14
2023-04-29T10:07:17.032Z,23.12
2023-04-29T10:09:46.727Z,23.14
2023-04-29T10:12:18.491Z,23.13
2023-04-29T10:15:06.832Z,23.13
2023-04-29T10:17:40.518Z,23.15
2023-04-29T10:20:09.083Z,23.16
2023-04-29T10:22:45.888Z,23.12
2023-04-29T10:25:15.271Z,23.11
2023-04-29T10:27:44.355Z,23.11
2023-04-29T10:30:13.481Z,23.11
2023-04-29T10:35:20.102Z,23.13
2023-04-29T10:37:48.845Z,23.14
2023-04-29T10:40:28.045Z,23.14
2023-04-29T10:42:55.838Z,23.13
2023-04-29T10:45:32.611Z,23.14
2023-04-29T10:48:03.194Z,23.15
2023-04-29T10:50:31.507Z,23.15
2023-04-29T10:53:01.857Z,23.15
2023-04-29T10:55:29.656Z,23.14
2023-04-29T10:57:57.329Z,23.14
2023-04-29T11:00:29.110Z,23.15
2023-04-29T11:02:57.368Z,23.16
2023-04-29T11:05:35.655Z,23.17
2023-04-29T11:08:23.194Z,23.16
2023-04-29T11:10:54.028Z,23.16
2023-04-29T11:13:28.743Z,23.16
2023-04-29T11:16:08.231Z,23.16
2023-04-29T11:18:36.896Z,23.16
2023-04-29T11:21:07.319Z,23.17
2023-04-29T11:23:35.659Z,23.15
2023-04-29T11:26:03.571Z,23.17
2023-04-29T11:28:31.653Z,23.18
2023-04-29T11:30:59.276Z,23.17
2023-04-29T11:33:27.883Z,23.18
2023-04-29T11:39:00.435Z,23.19
2023-04-29T11:41:28.377Z,23.16
2023-04-29T11:43:59.725Z,23.19
2023-04-29T11:46:30.216Z,23.17
2023-04-29T11:48:58.434Z,23.21
2023-04-29T11:51:25.898Z,23.21
2023-04-29T11:53:53.364Z,23.20
2023-04-29T11:56:25.433Z,23.17
2023-04-29T11:59:01.315Z,23.19
2023-04-29T12:01:29.020Z,23.19
2023-04-29T12:04:00.818Z,23.20
2023-04-29T12:06:30.128Z,23.18
2023-04-29T12:09:01.704Z,23.20
2023-04-29T12:11:29.228Z,23.21
2023-04-29T12:13:57.416Z,23.20
2023-04-29T12:16:25.773Z,23.20
2023-04-29T12:18:53.507Z,23.19
2023-04-29T21:02:52.883Z,22.82
2023-04-29T21:05:21.018Z,22.82
2023-04-29T21:07:49.347Z,22.82
2023-04-29T21:10:17.897Z,22.84
2023-04-29T21:12:45.656Z,22.85
2023-04-29T21:15:13.138Z,22.84
2023-04-29T21:17:40.593Z,22.86
2023-04-29T21:20:08.766Z,22.86
2023-04-29T21:22:36.189Z,22.85
2023-04-29T21:25:05.312Z,22.87
2023-04-29T21:27:32.947Z,22.87
2023-04-29T21:30:00.387Z,22.89
2023-04-29T21:32:27.879Z,22.88
2023-04-29T21:34:55.591Z,22.88
2023-04-29T21:37:23.130Z,22.88
2023-04-29T21:39:50.888Z,22.87
2023-04-29T21:42:22.415Z,22.86
2023-04-29T21:44:49.832Z,22.87
2023-04-29T21:47:17.251Z,22.87
2023-04-29T21:49:44.956Z,22.87
2023-04-29T21:52:12.818Z,22.87
2023-04-29T21:54:40.253Z,22.87
2023-04-29T21:57:08.041Z,22.86
2023-04-29T21:59:35.653Z,22.86
2023-04-29T22:02:14.149Z,22.86
2023-04-29T22:04:42.001Z,22.85
2023-04-29T22:07:09.420Z,22.85
2023-04-29T22:09:36.891Z,22.84
2023-04-29T22:12:04.640Z,22.86
2023-04-29T22:14:32.062Z,22.85
2023-04-29T22:16:59.476Z,22.84
2023-04-29T22:19:30.058Z,22.86
2023-04-29T22:21:57.521Z,22.84
2023-04-29T22:24:24.954Z,22.84
2023-04-29T22:26:52.650Z,22.85
2023-04-29T22:29:20.894Z,22.85
2023-04-29T22:31:48.312Z,22.84
2023-04-29T22:34:16.025Z,22.84
2023-04-29T22:36:43.392Z,22.84
2023-04-29T22:39:10.791Z,22.84
2023-04-29T22:41:38.515Z,22.83
2023-04-29T22:44:05.951Z,22.83
2023-04-29T22:46:33.607Z,22.84
2023-04-29T22:49:01.439Z,22.83
2023-04-29T22:51:28.855Z,22.83
2023-04-29T22:53:56.268Z,22.83
2023-04-29T22:56:24.634Z,22.83
2023-04-29T22:58:52.113Z,22.83
2023-04-29T23:01:19.561Z,22.82
2023-04-29T23:03:47.199Z,22.83
2023-04-29T23:06:14.660Z,22.82
2023-04-29T23:08:42.321Z,22.82
2023-04-29T23:11:10.832Z,22.83
2023-04-29T23:13:38.225Z,22.81
2023-04-29T23:16:06.694Z,22.82
2023-04-29T23:18:35.672Z,22.82
2023-04-29T23:21:03.606Z,22.83
2023-04-29T23:23:31.004Z,22.82
2023-04-29T23:25:58.736Z,22.82
2023-04-29T23:28:26.187Z,22.81
2023-04-29T23:30:54.532Z,22.81
2023-04-29T23:33:22.323Z,22.81
2023-04-29T23:35:50.704Z,22.81
2023-04-29T23:38:18.771Z,22.80
2023-04-29T23:40:46.731Z,22.80
2023-04-29T23:43:17.271Z,22.81
2023-04-29T23:45:45.860Z,22.80
2023-04-29T23:48:13.992Z,22.81
2023-04-29T23:50:41.468Z,22.81
2023-04-29T23:53:08.904Z,22.81
2023-04-29T23:55:36.618Z,22.80
2023-04-29T23:58:04.101Z,22.80
